Time;durP1;ratioP1;P1;durP2;ratioP2;P2;SDS_P1;SDS_P2;PMS_P1;PMS_P2;Temp;Humidity;BMP_temperature;BMP_pressure;BME280_temperature;BME280_humidity;BME280_pressure;Samples;Min_cycle;Max_cycle;Signal;HPM_P1;HPM_P2
2023/12/14 00:01:25;;;;;;;17.75;4.18;;;4.80;45.10;;;;;;4926542;29;20039;-83
2023/12/14 00:03:51;;;;;;;14.82;3.97;;;4.80;45.10;;;;;;4944234;28;20391;-83
2023/12/14 00:06:17;;;;;;;13.02;3.63;;;4.70;45.30;;;;;;4941237;28;20034;-83
2023/12/14 00:08:43;;;;;;;18.83;4.15;;;4.70;45.00;;;;;;4939974;28;20028;-82
2023/12/14 00:11:11;;;;;;;16.92;4.00;;;4.80;45.30;;;;;;4961027;28;20579;-83
2023/12/14 00:13:37;;;;;;;13.35;3.33;;;4.70;45.10;;;;;;4943432;28;20059;-82
2023/12/14 00:16:04;;;;;;;11.52;3.50;;;4.70;45.30;;;;;;4948113;28;20070;-83
2023/12/14 00:18:30;;;;;;;13.20;3.92;;;4.70;45.20;;;;;;4944173;28;20031;-82
2023/12/14 00:20:56;;;;;;;20.45;3.85;;;4.70;45.40;;;;;;4959431;28;20125;-83
2023/12/14 00:23:23;;;;;;;16.50;3.60;;;4.80;45.60;;;;;;4926488;29;20067;-81
2023/12/14 00:25:49;;;;;;;11.50;3.03;;;4.80;45.30;;;;;;4944416;28;20039;-81
2023/12/14 00:28:15;;;;;;;12.95;3.65;;;4.80;45.20;;;;;;4944469;28;20126;-82
2023/12/14 00:30:41;;;;;;;14.05;3.67;;;4.80;45.00;;;;;;4942913;29;20502;-82
2023/12/14 00:33:07;;;;;;;11.75;3.55;;;4.80;45.20;;;;;;4944423;29;20487;-82
2023/12/14 00:35:33;;;;;;;17.80;3.42;;;4.80;45.30;;;;;;4945123;28;20039;-78
2023/12/14 00:37:59;;;;;;;14.63;2.67;;;4.80;45.10;;;;;;4946114;28;20042;-83
2023/12/14 00:40:26;;;;;;;12.65;2.85;;;4.80;45.00;;;;;;4942549;28;20036;-81
2023/12/14 00:42:52;;;;;;;13.90;2.90;;;4.70;45.10;;;;;;4942224;28;21286;-82
2023/12/14 00:45:18;;;;;;;15.18;2.75;;;4.80;45.30;;;;;;4943127;28;20131;-82
2023/12/14 00:47:44;;;;;;;12.90;2.80;;;4.80;45.10;;;;;;4947538;29;20039;-85
2023/12/14 00:50:10;;;;;;;16.33;3.72;;;4.70;44.90;;;;;;4941400;28;20094;-82
2023/12/14 00:52:36;;;;;;;14.68;3.22;;;4.70;45.20;;;;;;4943264;28;20059;-84
2023/12/14 00:55:02;;;;;;;15.02;2.78;;;4.70;45.20;;;;;;4944630;28;20042;-84
2023/12/14 00:57:29;;;;;;;14.88;3.00;;;4.80;45.20;;;;;;4943613;28;20086;-83
2023/12/14 00:59:55;;;;;;;14.20;2.30;;;4.80;45.10;;;;;;4944917;28;20035;-85
2023/12/14 01:02:21;;;;;;;15.95;2.60;;;4.80;44.90;;;;;;4944702;28;20083;-86
2023/12/14 01:04:47;;;;;;;11.35;2.60;;;4.80;45.30;;;;;;4942245;28;20502;-83
2023/12/14 01:07:13;;;;;;;11.50;2.63;;;4.80;45.10;;;;;;4944180;28;20415;-81
2023/12/14 01:09:39;;;;;;;14.50;3.15;;;4.80;44.90;;;;;;4941070;28;20027;-85
2023/12/14 01:12:05;;;;;;;13.80;3.28;;;4.80;45.00;;;;;;4942812;28;20031;-85
2023/12/14 01:14:31;;;;;;;12.25;3.15;;;4.80;45.10;;;;;;4945277;28;20062;-83
2023/12/14 01:16:57;;;;;;;13.88;2.70;;;4.90;45.10;;;;;;4947125;28;20066;-84
2023/12/14 01:19:25;;;;;;;9.23;2.17;;;4.90;44.70;;;;;;4941748;29;20059;-86
2023/12/14 01:21:51;;;;;;;16.02;3.13;;;4.90;45.00;;;;;;4943983;28;20035;-87
2023/12/14 01:24:17;;;;;;;18.45;3.45;;;4.90;45.00;;;;;;4945800;28;20035;-86
2023/12/14 01:26:43;;;;;;;10.70;2.47;;;4.80;44.90;;;;;;4959622;29;20036;-85
2023/12/14 01:29:11;;;;;;;18.42;3.15;;;4.80;45.00;;;;;;4961317;28;20478;-84
2023/12/14 01:31:37;;;;;;;14.82;2.58;;;4.80;44.80;;;;;;4951882;28;20558;-80
2023/12/14 01:34:03;;;;;;;14.57;2.70;;;4.80;44.80;;;;;;4943250;28;20070;-82
2023/12/14 01:36:29;;;;;;;10.40;2.90;;;4.80;44.90;;;;;;4944726;28;20035;-84
2023/12/14 01:38:55;;;;;;;14.35;3.22;;;4.80;44.80;;;;;;4943440;28;20035;-85
2023/12/14 01:41:21;;;;;;;12.88;2.88;;;4.80;44.90;;;;;;4943712;28;20509;-84
2023/12/14 01:43:47;;;;;;;13.23;2.75;;;4.80;44.80;;;;;;4943393;28;20042;-82
2023/12/14 01:46:15;;;;;;;16.23;2.97;;;4.80;44.90;;;;;;4944014;28;20122;-81
2023/12/14 01:48:41;;;;;;;15.48;2.85;;;4.80;44.70;;;;;;4924675;29;20522;-85
2023/12/14 01:51:07;;;;;;;17.50;2.88;;;4.80;45.00;;;;;;4942691;29;20042;-85
2023/12/14 01:53:33;;;;;;;12.80;3.20;;;4.80;45.00;;;;;;4942804;28;20044;-83
2023/12/14 01:55:59;;;;;;;16.13;3.40;;;4.90;45.00;;;;;;4929848;28;20032;-87
2023/12/14 01:58:26;;;;;;;12.80;2.72;;;4.90;44.90;;;;;;4957773;28;20083;-83
2023/12/14 02:01:11;;;;;;;15.80;2.80;;;4.90;44.70;;;;;;4939913;28;20066;-82
2023/12/14 02:03:48;;;;;;;15.07;3.20;;;4.90;44.90;;;;;;4923617;28;20150;-83
2023/12/14 02:06:16;;;;;;;15.07;2.10;;;4.90;44.70;;;;;;4942898;28;20418;-85
2023/12/14 02:08:42;;;;;;;14.70;3.22;;;4.90;44.90;;;;;;4943088;29;20143;-85
2023/12/14 02:11:08;;;;;;;10.60;2.53;;;4.90;44.70;;;;;;4941978;28;20460;-85
2023/12/14 02:13:34;;;;;;;22.05;3.25;;;4.90;44.80;;;;;;4941152;28;20035;-85
2023/12/14 02:16:00;;;;;;;15.43;2.42;;;4.90;45.00;;;;;;4923253;29;20411;-85
2023/12/14 02:18:26;;;;;;;15.88;3.17;;;4.90;44.90;;;;;;4933053;28;20027;-86
2023/12/14 02:20:52;;;;;;;14.48;3.13;;;4.90;45.00;;;;;;4946003;29;20039;-81
2023/12/14 02:23:18;;;;;;;11.68;2.25;;;4.90;45.00;;;;;;4940470;28;20055;-84
2023/12/14 02:25:44;;;;;;;15.57;3.33;;;4.90;44.90;;;;;;4943935;28;20040;-80
2023/12/14 02:28:10;;;;;;;16.15;2.70;;;4.90;44.80;;;;;;4941975;28;20040;-82
2023/12/14 02:30:36;;;;;;;15.68;3.03;;;4.90;44.90;;;;;;4924925;28;20159;-83
2023/12/14 02:33:02;;;;;;;14.25;2.75;;;4.80;44.60;;;;;;4946351;29;20541;-86
2023/12/14 02:35:28;;;;;;;14.80;2.53;;;4.90;44.80;;;;;;4945065;28;20044;-84
2023/12/14 02:37:54;;;;;;;11.75;2.72;;;4.90;44.70;;;;;;4943627;28;20398;-86
2023/12/14 02:40:20;;;;;;;13.27;2.70;;;4.90;44.70;;;;;;4940178;28;20043;-86
2023/12/14 02:42:46;;;;;;;13.73;2.65;;;4.90;44.70;;;;;;4941073;28;20126;-87
2023/12/14 02:45:12;;;;;;;14.85;3.28;;;4.90;44.70;;;;;;4942104;28;20039;-82
2023/12/14 02:47:38;;;;;;;18.50;3.60;;;4.90;44.70;;;;;;4941625;28;20043;-82
2023/12/14 02:50:05;;;;;;;17.13;3.10;;;4.90;44.60;;;;;;4942391;28;20039;-82
2023/12/14 02:52:31;;;;;;;12.48;3.47;;;4.90;44.60;;;;;;4940586;28;20479;-80
2023/12/14 02:54:57;;;;;;;11.00;2.38;;;4.90;44.60;;;;;;4941127;28;20051;-81
2023/12/14 02:57:23;;;;;;;9.63;2.72;;;4.90;44.70;;;;;;4941453;28;20039;-85
2023/12/14 02:59:49;;;;;;;12.18;3.20;;;4.90;44.80;;;;;;4942466;28;20748;-80
2023/12/14 03:02:15;;;;;;;15.23;3.33;;;4.90;44.90;;;;;;4921467;28;20043;-84
2023/12/14 03:04:41;;;;;;;15.05;2.90;;;4.90;44.70;;;;;;4941658;28;20090;-82
2023/12/14 03:07:07;;;;;;;15.88;3.20;;;4.90;44.50;;;;;;4931168;29;20185;-84
2023/12/14 03:09:34;;;;;;;20.17;3.70;;;4.80;44.60;;;;;;4944439;28;20046;-83
2023/12/14 03:12:01;;;;;;;21.02;2.70;;;4.90;44.60;;;;;;4946905;28;20027;-82
2023/12/14 03:14:32;;;;;;;19.10;3.00;;;4.80;44.30;;;;;;4929324;29;20141;-82
2023/12/14 03:16:58;;;;;;;21.42;3.47;;;4.80;44.70;;;;;;4947671;28;20043;-81
2023/12/14 03:19:24;;;;;;;15.55;3.40;;;4.90;44.60;;;;;;4961152;28;20035;-82
2023/12/14 03:21:50;;;;;;;9.63;2.38;;;4.90;44.30;;;;;;4944797;28;20036;-80
2023/12/14 03:24:16;;;;;;;11.90;2.40;;;4.90;44.60;;;;;;4945901;28;20062;-82
2023/12/14 03:26:42;;;;;;;15.43;2.95;;;4.90;44.40;;;;;;4943862;29;20054;-83
2023/12/14 03:29:08;;;;;;;13.90;2.63;;;4.90;44.60;;;;;;4944653;28;20071;-81
2023/12/14 03:31:35;;;;;;;17.05;2.88;;;4.90;44.60;;;;;;4943780;28;20122;-83
2023/12/14 03:34:02;;;;;;;15.88;2.70;;;5.00;44.60;;;;;;4945292;28;20042;-82
2023/12/14 03:36:28;;;;;;;17.00;3.38;;;5.00;44.50;;;;;;4944454;28;20043;-80
2023/12/14 03:38:54;;;;;;;15.88;2.47;;;4.90;44.30;;;;;;4940637;29;20487;-83
2023/12/14 03:41:20;;;;;;;16.00;3.03;;;5.00;44.30;;;;;;4943069;28;20134;-83
2023/12/14 03:43:46;;;;;;;16.40;2.50;;;5.00;44.30;;;;;;4945210;28;20450;-82
2023/12/14 03:46:12;;;;;;;20.00;3.75;;;4.90;44.20;;;;;;4933322;29;20763;-83
2023/12/14 03:48:38;;;;;;;15.77;2.85;;;5.00;44.30;;;;;;4949421;28;20035;-82
2023/12/14 03:51:05;;;;;;;14.07;2.83;;;4.90;44.20;;;;;;4947129;29;21103;-81
2023/12/14 03:53:32;;;;;;;18.60;2.50;;;4.90;44.20;;;;;;4941822;28;20094;-81
2023/12/14 03:56:00;;;;;;;12.98;2.83;;;4.90;44.20;;;;;;4945302;28;20404;-83
2023/12/14 03:58:26;;;;;;;15.10;2.65;;;4.90;44.30;;;;;;4943943;28;20078;-83
2023/12/14 04:00:53;;;;;;;14.20;2.92;;;4.90;44.20;;;;;;4943036;28;20435;-83
2023/12/14 04:03:18;;;;;;;16.55;3.35;;;4.90;44.20;;;;;;4941481;28;20138;-82
2023/12/14 04:05:44;;;;;;;20.48;2.92;;;4.90;44.10;;;;;;4947837;28;20753;-82
2023/12/14 04:08:11;;;;;;;16.23;3.05;;;4.90;44.10;;;;;;4942443;28;20043;-83
2023/12/14 04:10:37;;;;;;;16.35;3.05;;;4.90;44.30;;;;;;4960415;28;20095;-83
2023/12/14 04:13:03;;;;;;;16.85;2.72;;;4.90;44.90;;;;;;4945308;28;20511;-82
2023/12/14 04:15:29;;;;;;;15.23;2.55;;;4.90;44.30;;;;;;4946897;28;21497;-80
2023/12/14 04:17:55;;;;;;;16.30;2.63;;;5.00;44.50;;;;;;4942212;28;20030;-84
2023/12/14 04:20:21;;;;;;;15.68;3.38;;;5.00;44.40;;;;;;4947319;28;20035;-83
2023/12/14 04:22:48;;;;;;;11.60;2.55;;;5.00;44.40;;;;;;4942644;28;20051;-83
2023/12/14 04:25:14;;;;;;;13.60;2.63;;;5.00;44.20;;;;;;4941094;28;20039;-79
2023/12/14 04:27:40;;;;;;;15.98;3.00;;;5.10;44.40;;;;;;4941773;28;20043;-82
2023/12/14 04:30:10;;;;;;;15.43;2.78;;;5.10;44.30;;;;;;4946519;29;20055;-81
2023/12/14 04:32:37;;;;;;;13.30;2.63;;;5.10;44.30;;;;;;4943324;28;20046;-80
2023/12/14 04:35:04;;;;;;;20.05;3.53;;;5.10;44.40;;;;;;4943599;28;20066;-80
2023/12/14 04:37:30;;;;;;;18.33;3.08;;;5.10;44.50;;;;;;4941453;28;20047;-81
2023/12/14 04:40:00;;;;;;;18.33;3.05;;;5.10;44.40;;;;;;4943568;28;20043;-78
2023/12/14 04:42:26;;;;;;;10.52;2.45;;;5.10;44.30;;;;;;4943496;28;20039;-78
2023/12/14 04:44:52;;;;;;;10.32;2.85;;;5.00;44.40;;;;;;4942119;28;20075;-77
2023/12/14 04:47:18;;;;;;;15.45;2.67;;;5.00;45.00;;;;;;4941264;28;20487;-81
2023/12/14 04:49:44;;;;;;;15.85;2.70;;;5.10;44.70;;;;;;4944575;28;20055;-81
2023/12/14 04:52:10;;;;;;;16.15;2.78;;;5.10;44.90;;;;;;4939140;28;20093;-81
2023/12/14 04:54:38;;;;;;;16.63;2.63;;;5.10;45.80;;;;;;4943177;28;20161;-79
2023/12/14 04:57:04;;;;;;;12.68;2.85;;;5.00;45.00;;;;;;4941667;29;20512;-84
2023/12/14 04:59:30;;;;;;;13.20;3.17;;;5.10;45.20;;;;;;4942622;28;20071;-82
2023/12/14 05:01:56;;;;;;;14.40;3.22;;;5.10;45.10;;;;;;4941563;28;20506;-83
2023/12/14 05:04:22;;;;;;;12.75;2.40;;;5.10;45.00;;;;;;4942918;28;20067;-79
2023/12/14 05:06:48;;;;;;;13.80;2.65;;;5.10;45.60;;;;;;4930925;29;20035;-79
2023/12/14 05:09:14;;;;;;;17.45;2.88;;;5.10;45.50;;;;;;4946494;28;20089;-79
2023/12/14 05:11:41;;;;;;;19.00;4.18;;;5.20;45.30;;;;;;4943399;28;20043;-79
2023/12/14 05:14:07;;;;;;;13.05;3.10;;;5.20;45.60;;;;;;4944863;28;20035;-80
2023/12/14 05:16:33;;;;;;;14.30;2.60;;;5.20;45.60;;;;;;4941209;28;20123;-79
2023/12/14 05:18:59;;;;;;;18.88;3.45;;;5.20;45.30;;;;;;4929938;29;20756;-79
2023/12/14 05:21:25;;;;;;;11.95;3.40;;;5.30;45.30;;;;;;4941615;28;20031;-79
2023/12/14 05:23:51;;;;;;;15.93;3.63;;;5.20;44.90;;;;;;4946504;28;20225;-80
2023/12/14 05:26:17;;;;;;;11.40;3.33;;;5.30;45.10;;;;;;4941827;28;20075;-79
2023/12/14 05:28:44;;;;;;;17.27;3.40;;;5.20;45.00;;;;;;4955779;28;20491;-79
2023/12/14 05:31:10;;;;;;;14.13;2.85;;;5.20;45.00;;;;;;4940811;28;20062;-77
2023/12/14 05:33:40;;;;;;;15.35;3.50;;;5.20;45.20;;;;;;4941669;28;21437;-80
2023/12/14 05:36:10;;;;;;;17.80;3.05;;;5.20;45.50;;;;;;4941291;29;20031;-80
2023/12/14 05:38:40;;;;;;;16.55;3.75;;;5.20;45.50;;;;;;4943103;28;20483;-80
2023/12/14 05:41:06;;;;;;;19.10;3.10;;;5.20;45.50;;;;;;4924284;29;20129;-79
2023/12/14 05:43:32;;;;;;;15.07;2.55;;;5.20;45.60;;;;;;4925690;29;20122;-84
2023/12/14 05:45:58;;;;;;;18.00;2.75;;;5.20;45.60;;;;;;4942639;28;20181;-87
2023/12/14 05:48:26;;;;;;;18.08;3.03;;;5.30;45.80;;;;;;4947677;28;20039;-90
2023/12/14 05:50:52;;;;;;;14.40;3.08;;;5.30;45.60;;;;;;4942563;28;20031;-84
2023/12/14 05:53:18;;;;;;;15.43;3.22;;;5.30;45.40;;;;;;4941517;28;20071;-89
2023/12/14 05:55:44;;;;;;;18.77;3.03;;;5.30;45.70;;;;;;4941925;28;20070;-88
2023/12/14 05:58:10;;;;;;;13.20;2.80;;;5.30;45.60;;;;;;4946425;28;20380;-81
2023/12/14 06:00:37;;;;;;;13.82;3.58;;;5.30;45.70;;;;;;4961385;28;20040;-81
2023/12/14 06:03:03;;;;;;;16.60;2.95;;;5.30;45.50;;;;;;4966120;29;20059;-80
2023/12/14 06:05:29;;;;;;;15.93;2.80;;;5.40;45.50;;;;;;4945328;28;20035;-85
2023/12/14 06:07:55;;;;;;;13.93;2.75;;;5.40;45.30;;;;;;4943084;28;20042;-88
2023/12/14 06:10:21;;;;;;;13.63;3.05;;;5.30;45.20;;;;;;4941122;28;20036;-88
2023/12/14 06:12:47;;;;;;;13.23;2.88;;;5.30;45.10;;;;;;4941625;28;20805;-90
2023/12/14 06:15:13;;;;;;;14.40;3.58;;;5.40;44.70;;;;;;4946814;29;20043;-83
2023/12/14 06:17:42;;;;;;;19.45;3.50;;;5.30;44.60;;;;;;4941351;28;20044;-85
2023/12/14 06:20:09;;;;;;;14.85;3.30;;;5.30;45.00;;;;;;4942496;28;20094;-85
2023/12/14 06:22:38;;;;;;;15.82;2.75;;;5.30;45.00;;;;;;4943497;28;20132;-91
2023/12/14 06:25:04;;;;;;;14.70;3.15;;;5.30;45.30;;;;;;4941615;28;20415;-85
2023/12/14 06:27:31;;;;;;;8.98;2.95;;;5.20;45.70;;;;;;4943029;28;20039;-86
2023/12/14 06:29:58;;;;;;;21.50;3.53;;;5.30;45.80;;;;;;4942131;29;20739;-88
2023/12/14 06:32:24;;;;;;;15.60;4.03;;;5.30;45.70;;;;;;4945975;28;20042;-89
2023/12/14 06:34:50;;;;;;;16.70;3.13;;;5.30;45.90;;;;;;4947120;28;20803;-83
2023/12/14 06:37:16;;;;;;;18.55;4.15;;;5.40;45.90;;;;;;4945163;28;20039;-87
2023/12/14 06:39:42;;;;;;;17.35;3.85;;;5.40;45.50;;;;;;4944461;28;20545;-85
2023/12/14 06:42:08;;;;;;;14.02;3.30;;;5.40;45.60;;;;;;4934056;28;20043;-86
2023/12/14 06:44:34;;;;;;;17.90;3.95;;;5.40;45.50;;;;;;4951319;28;20035;-87
2023/12/14 06:47:01;;;;;;;17.08;3.85;;;5.40;45.50;;;;;;4945996;28;20062;-85
2023/12/14 06:49:26;;;;;;;18.00;3.20;;;5.40;45.20;;;;;;4935044;29;20046;-89
2023/12/14 06:51:52;;;;;;;15.05;3.17;;;5.40;45.30;;;;;;4962307;28;20032;-88
2023/12/14 06:54:19;;;;;;;11.07;3.25;;;5.40;45.20;;;;;;4946887;28;20043;-85
2023/12/14 06:56:45;;;;;;;18.13;3.85;;;5.40;45.10;;;;;;4947051;29;20051;-88
2023/12/14 06:59:11;;;;;;;15.27;2.95;;;5.40;45.00;;;;;;4946448;28;20070;-82
2023/12/14 07:01:37;;;;;;;19.38;3.08;;;5.40;45.00;;;;;;4946182;28;20126;-82
2023/12/14 07:04:03;;;;;;;19.38;3.35;;;5.40;45.00;;;;;;4959398;28;20041;-84
2023/12/14 07:06:30;;;;;;;16.88;3.63;;;5.40;45.50;;;;;;4947348;28;21027;-79
2023/12/14 07:08:56;;;;;;;22.67;3.30;;;5.40;45.20;;;;;;4945427;29;20329;-80
2023/12/14 07:11:22;;;;;;;16.77;4.03;;;5.30;45.10;;;;;;4944088;28;20055;-86
2023/12/14 07:13:48;;;;;;;17.85;4.20;;;5.30;45.10;;;;;;4945366;28;20063;-81
2023/12/14 07:16:14;;;;;;;11.75;2.97;;;5.40;45.30;;;;;;4943316;29;20039;-78
2023/12/14 07:18:42;;;;;;;17.40;3.88;;;5.40;45.60;;;;;;4945503;28;20042;-82
2023/12/14 07:21:08;;;;;;;17.95;3.70;;;5.40;45.90;;;;;;4944828;29;20035;-83
2023/12/14 07:23:35;;;;;;;16.08;3.17;;;5.40;45.70;;;;;;4944638;28;20522;-81
2023/12/14 07:26:01;;;;;;;11.27;3.10;;;5.40;45.50;;;;;;4945606;28;20122;-79
2023/12/14 07:28:28;;;;;;;15.73;3.47;;;5.50;45.60;;;;;;4947276;28;20039;-83
2023/12/14 07:30:54;;;;;;;22.25;2.90;;;5.50;45.60;;;;;;4944499;28;20129;-83
2023/12/14 07:33:20;;;;;;;18.15;3.17;;;5.50;45.60;;;;;;4945602;28;22278;-84
2023/12/14 07:35:47;;;;;;;13.48;3.80;;;5.50;45.70;;;;;;4943342;29;20057;-83
2023/12/14 07:38:13;;;;;;;20.05;3.95;;;5.40;45.20;;;;;;4942002;28;20093;-85
2023/12/14 07:40:40;;;;;;;24.92;4.00;;;5.40;45.00;;;;;;4945490;28;20122;-84
2023/12/14 07:43:07;;;;;;;26.50;3.78;;;5.40;45.20;;;;;;4943023;28;20039;-83
2023/12/14 07:45:34;;;;;;;15.95;2.90;;;5.40;45.00;;;;;;4944351;28;20035;-85
2023/12/14 07:48:00;;;;;;;20.00;3.80;;;5.40;45.40;;;;;;4945310;29;20595;-81
2023/12/14 07:50:26;;;;;;;16.33;3.45;;;5.40;45.10;;;;;;4944833;28;20031;-81
2023/12/14 07:52:53;;;;;;;16.00;3.22;;;5.40;45.50;;;;;;4958284;28;20194;-77
2023/12/14 07:55:20;;;;;;;12.65;3.28;;;5.40;45.50;;;;;;4940393;28;20040;-80
2023/12/14 07:57:46;;;;;;;16.08;3.05;;;5.40;45.30;;;;;;4943134;28;20038;-81
2023/12/14 08:00:13;;;;;;;22.02;3.55;;;5.40;45.40;;;;;;4944330;28;20479;-81
2023/12/14 08:02:39;;;;;;;19.48;3.13;;;5.40;45.30;;;;;;4942180;28;20051;-81
2023/12/14 08:05:05;;;;;;;20.35;3.53;;;5.50;45.60;;;;;;4944831;28;20035;-81
2023/12/14 08:07:32;;;;;;;18.13;3.78;;;5.50;45.70;;;;;;4943499;28;20035;-83
2023/12/14 08:09:59;;;;;;;23.00;3.95;;;5.50;45.60;;;;;;4944068;28;20035;-80
2023/12/14 08:12:25;;;;;;;13.00;3.53;;;5.50;45.70;;;;;;4942896;28;20463;-81
2023/12/14 08:14:51;;;;;;;13.93;3.90;;;5.60;45.70;;;;;;4946122;29;20134;-80
2023/12/14 08:17:18;;;;;;;18.25;3.50;;;5.60;45.60;;;;;;4945033;28;20039;-81
2023/12/14 08:19:44;;;;;;;18.48;3.75;;;5.60;45.60;;;;;;4944105;28;20070;-82
2023/12/14 08:22:12;;;;;;;18.38;3.40;;;5.60;45.20;;;;;;4944224;28;20046;-79
2023/12/14 08:24:39;;;;;;;24.55;3.53;;;5.50;45.20;;;;;;4945642;28;20036;-80
2023/12/14 08:27:05;;;;;;;16.17;4.10;;;5.60;45.30;;;;;;4942639;29;20027;-80
2023/12/14 08:29:31;;;;;;;22.52;3.45;;;5.60;45.30;;;;;;4945269;28;20058;-80
2023/12/14 08:31:58;;;;;;;14.43;2.80;;;5.50;45.10;;;;;;4945015;28;20035;-81
2023/12/14 08:34:25;;;;;;;17.92;4.00;;;5.50;45.00;;;;;;4943477;28;20043;-80
2023/12/14 08:36:52;;;;;;;21.25;4.22;;;5.50;44.60;;;;;;4946650;28;20138;-84
2023/12/14 08:39:18;;;;;;;15.30;4.15;;;5.50;44.70;;;;;;4947625;28;20526;-85
2023/12/14 08:41:46;;;;;;;15.43;3.40;;;5.50;44.50;;;;;;4961077;28;20035;-86
2023/12/14 08:44:13;;;;;;;16.02;3.67;;;5.60;44.20;;;;;;4947150;28;20031;-86
2023/12/14 08:46:43;;;;;;;18.08;4.15;;;5.50;44.20;;;;;;4946216;28;20039;-90
2023/12/14 08:49:11;;;;;;;15.38;3.17;;;5.50;44.40;;;;;;4959193;28;20896;-81
2023/12/14 08:51:38;;;;;;;22.55;4.22;;;5.60;44.10;;;;;;4965353;28;20079;-82
2023/12/14 08:54:04;;;;;;;14.27;3.90;;;5.60;44.20;;;;;;4968742;28;20148;-78
2023/12/14 08:56:30;;;;;;;20.45;3.67;;;5.50;43.90;;;;;;4952690;28;20051;-80
2023/12/14 08:59:00;;;;;;;15.18;3.97;;;5.60;43.90;;;;;;4944494;28;20039;-86
2023/12/14 09:01:26;;;;;;;21.42;4.10;;;5.60;44.00;;;;;;4930580;29;20073;-89
2023/12/14 09:03:52;;;;;;;18.27;4.38;;;5.60;44.00;;;;;;4929075;29;20039;-81
2023/12/14 09:06:18;;;;;;;18.48;3.85;;;5.50;44.00;;;;;;4943589;28;20068;-85
2023/12/14 09:08:45;;;;;;;19.40;4.10;;;5.50;43.80;;;;;;4947732;28;20125;-88
2023/12/14 09:11:12;;;;;;;21.98;3.60;;;5.60;43.80;;;;;;4947087;28;20039;-80
2023/12/14 09:13:38;;;;;;;16.45;4.10;;;5.60;43.70;;;;;;4958672;28;20126;-83
2023/12/14 09:16:05;;;;;;;17.92;4.13;;;5.60;43.80;;;;;;4943841;28;20043;-78
2023/12/14 09:18:31;;;;;;;17.55;4.30;;;5.50;43.70;;;;;;4942454;28;21075;-79
2023/12/14 09:20:57;;;;;;;19.38;4.20;;;5.50;43.70;;;;;;4945814;29;20027;-81
2023/12/14 09:23:23;;;;;;;18.80;3.95;;;5.50;43.90;;;;;;4945859;28;20043;-86
2023/12/14 09:25:49;;;;;;;24.77;4.07;;;5.50;43.60;;;;;;4946164;28;20145;-89
2023/12/14 09:28:15;;;;;;;18.10;3.75;;;5.50;43.90;;;;;;4942134;28;20047;-81
2023/12/14 09:30:41;;;;;;;17.55;4.68;;;5.50;43.60;;;;;;4945732;28;20058;-83
2023/12/14 09:33:08;;;;;;;15.82;3.90;;;5.60;43.70;;;;;;4943634;29;20046;-86
2023/12/14 09:35:37;;;;;;;19.15;4.05;;;5.60;43.70;;;;;;4940413;28;20052;-80
2023/12/14 09:38:04;;;;;;;24.05;4.03;;;5.60;43.60;;;;;;4945046;28;20112;-84
2023/12/14 09:40:30;;;;;;;14.23;3.35;;;5.60;43.60;;;;;;4943515;28;20079;-80
2023/12/14 09:42:56;;;;;;;19.52;4.68;;;5.60;43.70;;;;;;4944986;28;20039;-79
2023/12/14 09:45:29;;;;;;;17.08;3.83;;;5.60;43.50;;;;;;4945893;28;20096;-78
2023/12/14 09:48:00;;;;;;;21.90;4.13;;;5.60;43.40;;;;;;4944006;29;20035;-78
2023/12/14 09:50:26;;;;;;;22.58;3.95;;;5.70;43.30;;;;;;4956240;28;20031;-77
2023/12/14 09:52:52;;;;;;;27.92;3.40;;;5.70;43.50;;;;;;4942486;28;20035;-78
2023/12/14 09:55:18;;;;;;;22.23;3.40;;;5.60;43.30;;;;;;4943460;28;20058;-77
2023/12/14 09:57:45;;;;;;;18.42;3.80;;;5.60;43.30;;;;;;4941497;28;20426;-78
2023/12/14 10:00:13;;;;;;;19.20;3.10;;;5.60;43.40;;;;;;4943110;28;20142;-77
2023/12/14 10:02:41;;;;;;;21.67;4.55;;;5.70;43.30;;;;;;4941647;28;20036;-78
2023/12/14 10:05:11;;;;;;;13.57;3.85;;;5.60;43.20;;;;;;4941918;28;20130;-78
2023/12/14 10:07:44;;;;;;;16.08;3.42;;;5.60;43.30;;;;;;4943070;28;20043;-78
2023/12/14 10:10:14;;;;;;;15.93;3.95;;;5.60;43.30;;;;;;4942160;28;20046;-75
2023/12/14 10:13:07;;;;;;;18.90;3.35;;;5.60;43.40;;;;;;4943428;28;20036;-78
2023/12/14 10:15:47;;;;;;;15.65;4.38;;;5.60;43.40;;;;;;4943710;28;20043;-77
2023/12/14 10:18:39;;;;;;;18.88;3.72;;;5.60;43.50;;;;;;4948554;29;20561;-79
2023/12/14 10:21:08;;;;;;;17.75;4.00;;;5.50;43.60;;;;;;4953128;29;20051;-79
2023/12/14 10:23:35;;;;;;;25.52;4.47;;;5.60;43.40;;;;;;4935552;29;20038;-78
2023/12/14 10:26:01;;;;;;;13.70;3.55;;;5.60;43.40;;;;;;4941225;28;20375;-79
2023/12/14 10:28:27;;;;;;;23.33;3.80;;;5.60;43.30;;;;;;4953311;28;20095;-85
2023/12/14 10:30:53;;;;;;;23.23;3.58;;;5.60;43.30;;;;;;4940592;29;20094;-80
2023/12/14 10:33:20;;;;;;;24.40;4.40;;;5.70;43.40;;;;;;4926796;28;20039;-79
2023/12/14 10:35:47;;;;;;;20.50;3.47;;;5.60;43.20;;;;;;4949416;29;20091;-78
2023/12/14 10:38:15;;;;;;;18.80;4.03;;;5.70;43.30;;;;;;4958201;28;20499;-79
2023/12/14 10:40:43;;;;;;;14.40;3.78;;;5.70;43.30;;;;;;4952675;28;20171;-79
2023/12/14 10:43:11;;;;;;;16.95;4.05;;;5.70;43.60;;;;;;4957186;28;20047;-80
2023/12/14 10:45:39;;;;;;;18.33;3.78;;;5.70;43.20;;;;;;4970423;28;20454;-80
2023/12/14 10:48:06;;;;;;;18.65;3.60;;;5.80;43.20;;;;;;4953725;29;20067;-79
2023/12/14 10:50:33;;;;;;;16.00;3.50;;;5.70;43.60;;;;;;4951490;28;20054;-79
2023/12/14 10:53:00;;;;;;;17.63;3.90;;;5.70;43.60;;;;;;4953669;28;20035;-78
2023/12/14 10:55:47;;;;;;;19.42;4.18;;;5.60;43.50;;;;;;4953856;28;20035;-79
2023/12/14 10:58:14;;;;;;;10.77;3.38;;;5.70;43.40;;;;;;4948226;28;20063;-82
2023/12/14 11:00:42;;;;;;;16.73;4.30;;;5.70;43.50;;;;;;4946541;28;20183;-81
2023/12/14 11:03:13;;;;;;;16.10;3.55;;;5.70;43.50;;;;;;4954477;29;20042;-80
2023/12/14 11:05:39;;;;;;;20.33;4.22;;;5.70;43.50;;;;;;4943069;28;20036;-86
2023/12/14 11:08:09;;;;;;;13.50;3.60;;;5.70;44.10;;;;;;4946751;29;20444;-83
2023/12/14 11:10:41;;;;;;;10.90;3.15;;;5.70;49.10;;;;;;4945483;28;20066;-81
2023/12/14 11:13:13;;;;;;;13.20;4.18;;;5.80;50.60;;;;;;4952797;28;20479;-83
2023/12/14 11:15:45;;;;;;;18.60;3.90;;;5.80;51.90;;;;;;4944637;28;20094;-79
2023/12/14 11:18:11;;;;;;;15.43;3.42;;;5.70;54.60;;;;;;4944174;29;20038;-77
2023/12/14 11:20:46;;;;;;;14.35;3.30;;;5.70;56.50;;;;;;4952404;28;20130;-76
2023/12/14 11:23:25;;;;;;;14.20;2.95;;;5.80;56.80;;;;;;4951949;28;20090;-75
2023/12/14 11:26:03;;;;;;;14.18;3.40;;;5.80;56.40;;;;;;4934666;29;20099;-76
2023/12/14 11:28:31;;;;;;;10.38;2.88;;;5.80;56.00;;;;;;4953967;28;20459;-76
2023/12/14 11:30:57;;;;;;;12.57;3.05;;;5.80;55.90;;;;;;4927206;29;20036;-77
2023/12/14 11:33:23;;;;;;;13.63;3.15;;;5.90;55.70;;;;;;4950433;28;20094;-77
2023/12/14 11:35:54;;;;;;;11.25;3.33;;;5.90;55.80;;;;;;4947539;29;20517;-75
2023/12/14 11:38:21;;;;;;;10.07;3.10;;;6.00;56.00;;;;;;4945531;28;20529;-76
2023/12/14 11:40:48;;;;;;;10.70;3.47;;;6.00;56.10;;;;;;4945770;28;20050;-77
2023/12/14 11:43:15;;;;;;;14.38;3.10;;;6.00;56.10;;;;;;4943618;28;20946;-75
2023/12/14 11:45:42;;;;;;;11.18;2.95;;;6.00;56.30;;;;;;4958578;28;20031;-76
2023/12/14 11:48:10;;;;;;;8.73;2.78;;;6.10;56.40;;;;;;4944215;28;20058;-77
2023/12/14 11:50:39;;;;;;;11.48;2.90;;;6.10;56.70;;;;;;4945055;28;20035;-77
2023/12/14 11:53:05;;;;;;;11.80;2.90;;;6.10;56.60;;;;;;4942940;28;20474;-77
2023/12/14 11:55:33;;;;;;;8.70;2.75;;;6.20;56.90;;;;;;4946939;28;20042;-77
2023/12/14 11:57:59;;;;;;;10.48;2.95;;;6.20;56.70;;;;;;4945325;28;20032;-76
2023/12/14 12:00:28;;;;;;;7.07;2.40;;;6.20;56.80;;;;;;4945041;28;20038;-75
2023/12/14 12:03:14;;;;;;;10.50;3.45;;;6.30;56.90;;;;;;4943726;29;20114;-76
2023/12/14 12:05:45;;;;;;;17.05;3.13;;;6.30;57.10;;;;;;4945877;28;20488;-76
2023/12/14 12:08:13;;;;;;;11.50;3.20;;;6.30;57.10;;;;;;4943239;28;20843;-78
2023/12/14 12:10:40;;;;;;;15.30;3.30;;;6.40;57.10;;;;;;4943613;28;20058;-76
2023/12/14 12:13:20;;;;;;;15.77;2.95;;;6.40;57.10;;;;;;4943668;28;20062;-78
2023/12/14 12:15:47;;;;;;;17.13;3.63;;;6.40;56.90;;;;;;4943233;28;20032;-78
2023/12/14 12:18:17;;;;;;;10.55;3.17;;;6.40;57.10;;;;;;4946665;28;20043;-79
2023/12/14 12:20:44;;;;;;;10.40;2.67;;;6.40;56.90;;;;;;4945902;29;20747;-78
2023/12/14 12:23:10;;;;;;;6.97;2.55;;;6.50;57.40;;;;;;4945159;28;20043;-78
2023/12/14 12:25:36;;;;;;;12.65;2.95;;;6.40;57.40;;;;;;4945132;28;20035;-78
2023/12/14 12:28:05;;;;;;;11.60;3.25;;;6.50;57.60;;;;;;4928346;29;20039;-78
2023/12/14 12:30:32;;;;;;;9.50;3.17;;;6.50;57.60;;;;;;4943755;28;20691;-78
2023/12/14 12:32:59;;;;;;;13.25;3.15;;;6.50;57.60;;;;;;4932302;29;20055;-77
2023/12/14 12:35:25;;;;;;;12.05;3.60;;;6.50;57.60;;;;;;4925854;28;20039;-78
2023/12/14 12:37:54;;;;;;;9.23;2.65;;;6.50;57.40;;;;;;4940666;28;20115;-78
2023/12/14 12:40:22;;;;;;;10.25;2.70;;;6.60;57.50;;;;;;4942478;28;20554;-76
2023/12/14 12:42:48;;;;;;;12.52;3.55;;;6.60;57.60;;;;;;4944980;28;20102;-75
2023/12/14 12:45:21;;;;;;;12.20;3.30;;;6.60;57.60;;;;;;4943866;28;20031;-76
2023/12/14 12:47:47;;;;;;;9.32;3.40;;;6.60;57.70;;;;;;4958994;28;20652;-77